Time;durP1;ratioP1;P1;durP2;ratioP2;P2;SDS_P1;SDS_P2;PMS_P1;PMS_P2;Temp;Humidity;BMP_temperature;BMP_pressure;BME280_temperature;BME280_humidity;BME280_pressure;Samples;Min_cycle;Max_cycle;Signal;HPM_P1;HPM_P2
2021/05/22 00:00:36;;;;;;;;;;;20.70;53.30;;;;;;5048443;28;19935;-67
2021/05/22 00:03:03;;;;;;;;;;;20.70;53.30;;;;;;5034633;28;19932;-68
2021/05/22 00:05:29;;;;;;;;;;;20.80;53.40;;;;;;5014782;28;20615;-67
2021/05/22 00:07:56;;;;;;;;;;;20.70;53.50;;;;;;5015073;28;19928;-68
2021/05/22 00:10:22;;;;;;;;;;;20.80;53.60;;;;;;5044801;28;19932;-68
2021/05/22 00:12:48;;;;;;;;;;;20.70;53.40;;;;;;5035426;28;19928;-69
2021/05/22 00:15:14;;;;;;;;;;;20.80;53.40;;;;;;5048363;28;19928;-69
2021/05/22 00:17:40;;;;;;;;;;;20.80;53.20;;;;;;5034682;28;19952;-68
2021/05/22 00:20:07;;;;;;;;;;;20.80;53.30;;;;;;5013349;28;20271;-69
2021/05/22 00:22:33;;;;;;;;;;;20.80;53.20;;;;;;5014910;28;19936;-68
2021/05/22 00:25:00;;;;;;;;;;;20.80;53.20;;;;;;5025303;28;19932;-71
2021/05/22 00:27:26;;;;;;;;;;;20.80;53.30;;;;;;5032594;28;19929;-69
2021/05/22 00:29:52;;;;;;;;;;;20.80;53.30;;;;;;5010584;28;19929;-68
2021/05/22 00:32:18;;;;;;;;;;;20.80;53.40;;;;;;5007531;28;19958;-69
2021/05/22 00:34:44;;;;;;;;;;;20.80;53.20;;;;;;5023687;28;21349;-69
2021/05/22 00:37:10;;;;;;;;;;;20.80;53.30;;;;;;5041280;28;19929;-70
2021/05/22 00:39:36;;;;;;;;;;;20.80;53.20;;;;;;5037889;28;19942;-71
2021/05/22 00:42:04;;;;;;;;;;;20.80;53.10;;;;;;5018810;28;19933;-69
2021/05/22 00:44:31;;;;;;;;;;;20.90;53.30;;;;;;5039363;28;19929;-67
2021/05/22 00:46:57;;;;;;;;;;;20.80;53.00;;;;;;5049888;28;20028;-67
2021/05/22 00:49:23;;;;;;;;;;;20.80;53.10;;;;;;5051760;28;19928;-69
2021/05/22 00:51:49;;;;;;;;;;;20.80;53.00;;;;;;5038754;28;19942;-69
2021/05/22 00:54:16;;;;;;;;;;;20.80;53.20;;;;;;5026579;28;19936;-68
2021/05/22 00:56:42;;;;;;;;;;;20.80;53.10;;;;;;5020679;28;19929;-67
2021/05/22 00:59:09;;;;;;;;;;;20.80;53.10;;;;;;5047604;28;20006;-69
2021/05/22 01:01:35;;;;;;;;;;;20.90;53.30;;;;;;5032355;28;19954;-70
2021/05/22 01:04:01;;;;;;;;;;;20.90;53.10;;;;;;5021679;28;20399;-68
2021/05/22 01:06:29;;;;;;;;;;;20.90;53.00;;;;;;5040732;28;19937;-69
2021/05/22 01:08:55;;;;;;;;;;;20.90;53.00;;;;;;5031148;28;19929;-68
2021/05/22 01:11:21;;;;;;;;;;;20.90;52.90;;;;;;5031131;28;19929;-70
2021/05/22 01:13:48;;;;;;;;;;;20.80;52.90;;;;;;5031598;28;19928;-69
2021/05/22 01:16:15;;;;;;;;;;;20.80;52.80;;;;;;5052143;28;20695;-68
2021/05/22 01:18:41;;;;;;;;;;;20.80;52.70;;;;;;5029537;28;19928;-72
2021/05/22 01:21:07;;;;;;;;;;;20.80;52.80;;;;;;5035940;28;19935;-70
2021/05/22 01:23:33;;;;;;;;;;;20.80;52.80;;;;;;5024086;28;19928;-69
2021/05/22 01:26:00;;;;;;;;;;;20.80;52.80;;;;;;5010741;28;19935;-69
2021/05/22 01:28:26;;;;;;;;;;;20.80;52.90;;;;;;5041122;28;19929;-68
2021/05/22 01:30:52;;;;;;;;;;;20.80;52.90;;;;;;5050516;28;19998;-68
2021/05/22 01:33:19;;;;;;;;;;;20.80;53.00;;;;;;5050564;28;19929;-67
2021/05/22 01:35:45;;;;;;;;;;;20.80;52.90;;;;;;5050809;28;19998;-69
2021/05/22 01:38:11;;;;;;;;;;;20.80;53.00;;;;;;5023724;28;19929;-68
2021/05/22 01:40:37;;;;;;;;;;;20.80;52.90;;;;;;5029875;28;20400;-68
2021/05/22 01:43:04;;;;;;;;;;;20.80;53.00;;;;;;5026730;28;20585;-70
2021/05/22 01:45:31;;;;;;;;;;;20.80;52.90;;;;;;4999606;28;19928;-69
2021/05/22 01:47:58;;;;;;;;;;;20.80;52.90;;;;;;5008584;28;19936;-69
2021/05/22 01:50:24;;;;;;;;;;;20.80;52.90;;;;;;5026453;28;20432;-66
2021/05/22 01:52:51;;;;;;;;;;;20.80;52.60;;;;;;5023258;28;19929;-67
2021/05/22 01:55:17;;;;;;;;;;;20.80;52.70;;;;;;5047895;28;19933;-69
2021/05/22 01:57:43;;;;;;;;;;;20.80;52.60;;;;;;5023678;28;19929;-68
2021/05/22 02:00:10;;;;;;;;;;;20.80;52.70;;;;;;5043595;28;19951;-66
2021/05/22 02:02:37;;;;;;;;;;;20.80;52.70;;;;;;5047745;28;19928;-68
2021/05/22 02:05:03;;;;;;;;;;;20.80;52.80;;;;;;5016534;28;19931;-67
2021/05/22 02:07:29;;;;;;;;;;;20.80;52.80;;;;;;5022863;28;19932;-68
2021/05/22 02:09:55;;;;;;;;;;;20.80;52.80;;;;;;5038436;28;19924;-69
2021/05/22 02:12:22;;;;;;;;;;;20.70;52.70;;;;;;5048111;28;20347;-68
2021/05/22 02:14:48;;;;;;;;;;;20.70;52.60;;;;;;5049804;28;20417;-67
2021/05/22 02:17:14;;;;;;;;;;;20.70;52.80;;;;;;5037979;28;19982;-68
2021/05/22 02:19:43;;;;;;;;;;;20.70;52.80;;;;;;5022512;28;19936;-68
2021/05/22 02:22:09;;;;;;;;;;;20.70;52.80;;;;;;5034299;28;20307;-67
2021/05/22 02:24:35;;;;;;;;;;;20.70;53.00;;;;;;5041351;28;19932;-68
2021/05/22 02:27:01;;;;;;;;;;;20.70;52.90;;;;;;5026641;28;19929;-68
2021/05/22 02:29:27;;;;;;;;;;;20.70;53.00;;;;;;5035275;28;19955;-69
2021/05/22 02:31:53;;;;;;;;;;;20.70;53.00;;;;;;5043148;28;19936;-69
2021/05/22 02:34:21;;;;;;;;;;;20.70;53.60;;;;;;5048589;28;19932;-69
2021/05/22 02:36:47;;;;;;;;;;;20.70;52.80;;;;;;5031573;28;20036;-70
2021/05/22 02:39:13;;;;;;;;;;;20.70;52.70;;;;;;5048689;28;20014;-69
2021/05/22 02:41:39;;;;;;;;;;;20.70;52.70;;;;;;5047335;28;19929;-67
2021/05/22 02:44:05;;;;;;;;;;;20.70;52.70;;;;;;5049045;28;19928;-69
2021/05/22 02:46:32;;;;;;;;;;;20.70;52.70;;;;;;5045603;28;19935;-68
2021/05/22 02:48:58;;;;;;;;;;;20.70;52.70;;;;;;5044222;28;20095;-68
2021/05/22 02:51:25;;;;;;;;;;;20.70;53.00;;;;;;5049166;28;19932;-68
2021/05/22 02:53:51;;;;;;;;;;;20.70;52.90;;;;;;5049795;28;19928;-70
2021/05/22 02:56:17;;;;;;;;;;;20.70;52.90;;;;;;5046433;28;19932;-68
2021/05/22 02:58:44;;;;;;;;;;;20.80;52.90;;;;;;5047740;28;20316;-67
2021/05/22 03:01:10;;;;;;;;;;;20.80;52.90;;;;;;5048265;28;19928;-68
2021/05/22 03:03:36;;;;;;;;;;;20.80;52.60;;;;;;5025461;28;19935;-69
2021/05/22 03:06:02;;;;;;;;;;;20.80;52.60;;;;;;4977909;28;20403;-68
2021/05/22 03:08:28;;;;;;;;;;;20.80;52.80;;;;;;5034495;28;19932;-70
2021/05/22 03:10:54;;;;;;;;;;;20.80;52.70;;;;;;5033830;28;20384;-67
2021/05/22 03:13:20;;;;;;;;;;;20.80;52.60;;;;;;5007875;28;19935;-67
2021/05/22 03:15:46;;;;;;;;;;;20.80;52.40;;;;;;5018840;28;19929;-68
2021/05/22 03:18:12;;;;;;;;;;;20.80;52.50;;;;;;5026697;28;19928;-68
2021/05/22 03:20:38;;;;;;;;;;;20.80;52.30;;;;;;5046735;28;20311;-69
2021/05/22 03:23:05;;;;;;;;;;;20.80;52.60;;;;;;5045280;28;20335;-69
2021/05/22 03:25:31;;;;;;;;;;;20.80;52.50;;;;;;5047374;28;19932;-68
2021/05/22 03:27:57;;;;;;;;;;;20.80;52.60;;;;;;5005116;28;20733;-67
2021/05/22 03:30:24;;;;;;;;;;;20.80;52.60;;;;;;5020501;28;19932;-68
2021/05/22 03:32:50;;;;;;;;;;;20.70;52.40;;;;;;5030660;28;19963;-68
2021/05/22 03:35:16;;;;;;;;;;;20.70;52.60;;;;;;5033590;28;19943;-69
2021/05/22 03:37:42;;;;;;;;;;;20.70;52.70;;;;;;5018808;28;19928;-70
2021/05/22 03:40:08;;;;;;;;;;;20.70;52.70;;;;;;5017696;28;19960;-69
2021/05/22 03:42:35;;;;;;;;;;;20.60;52.60;;;;;;5021304;28;19928;-69
2021/05/22 03:45:01;;;;;;;;;;;20.60;52.80;;;;;;5050762;28;19929;-68
2021/05/22 03:47:27;;;;;;;;;;;20.60;52.90;;;;;;5049111;28;19954;-68
2021/05/22 03:49:53;;;;;;;;;;;20.60;53.00;;;;;;5047401;28;19929;-67
2021/05/22 03:52:19;;;;;;;;;;;20.60;53.10;;;;;;5018863;28;20466;-68
2021/05/22 03:54:46;;;;;;;;;;;20.60;53.00;;;;;;5044051;28;19955;-69
2021/05/22 03:57:12;;;;;;;;;;;20.60;53.00;;;;;;5036299;28;19987;-67
2021/05/22 03:59:39;;;;;;;;;;;20.60;53.00;;;;;;5047197;28;19933;-68
2021/05/22 04:02:05;;;;;;;;;;;20.60;52.90;;;;;;5049570;28;19937;-68
2021/05/22 04:04:31;;;;;;;;;;;20.60;52.80;;;;;;5031976;28;19928;-69
2021/05/22 04:06:57;;;;;;;;;;;20.60;52.80;;;;;;5047568;28;20387;-67
2021/05/22 04:09:23;;;;;;;;;;;20.60;52.80;;;;;;5036777;28;19932;-69
2021/05/22 04:11:49;;;;;;;;;;;20.60;52.80;;;;;;5038573;28;19999;-68
2021/05/22 04:14:15;;;;;;;;;;;20.60;52.80;;;;;;5037418;28;19929;-68
2021/05/22 04:16:42;;;;;;;;;;;20.50;52.80;;;;;;5044270;28;20439;-68
2021/05/22 04:19:08;;;;;;;;;;;20.50;52.80;;;;;;5033177;28;20463;-67
2021/05/22 04:21:34;;;;;;;;;;;20.50;52.70;;;;;;5008815;28;19935;-67
2021/05/22 04:24:00;;;;;;;;;;;20.50;52.60;;;;;;5037037;28;19929;-67
2021/05/22 04:26:26;;;;;;;;;;;20.50;52.80;;;;;;5028018;28;19944;-68
2021/05/22 04:28:52;;;;;;;;;;;20.50;52.80;;;;;;5039064;28;21343;-69
2021/05/22 04:31:18;;;;;;;;;;;20.50;52.80;;;;;;5046468;28;20385;-67
2021/05/22 04:33:45;;;;;;;;;;;20.60;52.90;;;;;;5036077;28;19936;-68
2021/05/22 04:36:11;;;;;;;;;;;20.50;52.90;;;;;;5052883;28;19936;-68
2021/05/22 04:38:37;;;;;;;;;;;20.50;52.80;;;;;;5001625;28;19933;-67
2021/05/22 04:41:03;;;;;;;;;;;20.50;52.90;;;;;;5024572;28;19929;-67
2021/05/22 04:43:29;;;;;;;;;;;20.50;53.20;;;;;;5040048;28;19924;-69
2021/05/22 04:45:55;;;;;;;;;;;20.50;53.20;;;;;;5027442;28;19951;-69
2021/05/22 04:48:21;;;;;;;;;;;20.50;53.00;;;;;;5041660;28;19928;-68
2021/05/22 04:50:48;;;;;;;;;;;20.60;52.90;;;;;;5039261;28;19928;-69
2021/05/22 04:53:14;;;;;;;;;;;20.50;52.80;;;;;;5048101;28;22113;-67
2021/05/22 04:55:40;;;;;;;;;;;20.50;52.50;;;;;;5050377;28;20004;-68
2021/05/22 04:58:06;;;;;;;;;;;20.50;52.70;;;;;;5050106;28;20349;-68
2021/05/22 05:00:32;;;;;;;;;;;20.50;52.70;;;;;;5040691;28;19932;-69
2021/05/22 05:02:58;;;;;;;;;;;20.50;52.70;;;;;;5018742;28;19929;-68
2021/05/22 05:05:24;;;;;;;;;;;20.50;53.10;;;;;;5014383;28;19928;-69
2021/05/22 05:07:51;;;;;;;;;;;20.50;52.90;;;;;;5043703;28;19935;-68
2021/05/22 05:10:17;;;;;;;;;;;20.50;53.00;;;;;;5027031;28;19941;-68
2021/05/22 05:12:43;;;;;;;;;;;20.50;52.70;;;;;;5023446;28;19929;-71
2021/05/22 05:15:09;;;;;;;;;;;20.60;52.60;;;;;;4997178;28;20288;-69
2021/05/22 05:17:35;;;;;;;;;;;20.60;52.40;;;;;;5040163;28;19931;-69
2021/05/22 05:20:01;;;;;;;;;;;20.70;52.30;;;;;;5021562;28;20282;-69
2021/05/22 05:22:27;;;;;;;;;;;20.70;52.10;;;;;;5043681;28;19929;-69
2021/05/22 05:24:54;;;;;;;;;;;20.70;52.10;;;;;;5038952;28;19936;-68
2021/05/22 05:27:20;;;;;;;;;;;20.70;52.00;;;;;;5048907;28;19978;-68
2021/05/22 05:29:46;;;;;;;;;;;20.70;51.90;;;;;;5049246;28;20010;-68
2021/05/22 05:32:12;;;;;;;;;;;20.80;51.80;;;;;;5049417;28;19936;-68
2021/05/22 05:34:38;;;;;;;;;;;20.80;51.90;;;;;;4996881;28;19932;-68
2021/05/22 05:37:04;;;;;;;;;;;20.80;51.80;;;;;;4980770;28;19936;-68
2021/05/22 05:39:30;;;;;;;;;;;20.80;51.80;;;;;;5039615;28;19929;-69
2021/05/22 05:41:57;;;;;;;;;;;20.90;51.90;;;;;;5051924;28;20419;-69
2021/05/22 05:44:23;;;;;;;;;;;20.90;51.70;;;;;;5051537;28;19986;-68
2021/05/22 05:46:49;;;;;;;;;;;21.00;51.50;;;;;;5050258;28;19936;-69
2021/05/22 05:49:15;;;;;;;;;;;21.00;51.50;;;;;;5050748;28;19936;-71
2021/05/22 05:51:41;;;;;;;;;;;21.00;51.60;;;;;;5034095;28;20516;-70
2021/05/22 05:54:07;;;;;;;;;;;21.00;51.50;;;;;;5038042;28;20385;-68
2021/05/22 05:56:33;;;;;;;;;;;21.00;51.40;;;;;;5051109;28;19929;-69
2021/05/22 05:59:00;;;;;;;;;;;21.00;51.50;;;;;;5050243;28;19936;-68
2021/05/22 06:01:26;;;;;;;;;;;21.00;51.50;;;;;;5049237;28;20006;-68
2021/05/22 06:03:52;;;;;;;;;;;21.00;51.50;;;;;;5049279;28;20623;-68
2021/05/22 06:06:19;;;;;;;;;;;21.00;51.60;;;;;;5010519;28;19978;-70
2021/05/22 06:08:45;;;;;;;;;;;20.90;51.60;;;;;;5019905;28;19982;-70
2021/05/22 06:11:14;;;;;;;;;;;20.90;51.60;;;;;;5050573;28;20573;-68
2021/05/22 06:13:40;;;;;;;;;;;20.90;51.70;;;;;;5045981;28;19979;-68
2021/05/22 06:16:16;;;;;;;;;;;20.90;51.70;;;;;;5023431;28;19943;-67
2021/05/22 06:18:42;;;;;;;;;;;20.90;51.60;;;;;;5045818;28;19939;-70
2021/05/22 06:21:08;;;;;;;;;;;20.90;51.30;;;;;;5034653;28;19929;-67
2021/05/22 06:23:34;;;;;;;;;;;20.90;51.40;;;;;;5048800;28;20317;-68
2021/05/22 06:26:01;;;;;;;;;;;20.90;51.50;;;;;;5030074;28;19998;-68
2021/05/22 06:28:27;;;;;;;;;;;20.90;51.50;;;;;;5035498;28;19928;-68
2021/05/22 06:30:54;;;;;;;;;;;20.90;51.40;;;;;;5013521;28;20023;-69
2021/05/22 06:33:21;;;;;;;;;;;21.00;51.40;;;;;;5049343;28;20305;-68
2021/05/22 06:35:47;;;;;;;;;;;21.00;51.50;;;;;;5049492;28;19936;-68
2021/05/22 06:38:13;;;;;;;;;;;21.00;51.50;;;;;;5033053;28;20282;-68
2021/05/22 06:40:39;;;;;;;;;;;21.00;51.40;;;;;;5022231;28;20424;-68
2021/05/22 06:43:05;;;;;;;;;;;21.00;51.50;;;;;;5003298;28;19933;-68
2021/05/22 06:45:39;;;;;;;;;;;21.00;51.30;;;;;;5003743;28;19929;-70
2021/05/22 06:48:05;;;;;;;;;;;21.00;51.30;;;;;;5009779;28;19936;-71
2021/05/22 06:50:32;;;;;;;;;;;21.00;51.40;;;;;;5023424;28;20404;-68
2021/05/22 06:52:58;;;;;;;;;;;20.90;51.40;;;;;;5046925;28;19928;-67
2021/05/22 06:55:24;;;;;;;;;;;20.90;51.30;;;;;;5028535;28;20552;-67
2021/05/22 06:57:50;;;;;;;;;;;20.90;51.30;;;;;;5046210;28;19933;-69
2021/05/22 07:00:17;;;;;;;;;;;20.90;51.40;;;;;;5049301;28;19932;-70
2021/05/22 07:02:43;;;;;;;;;;;20.90;51.40;;;;;;5048323;28;20400;-67
2021/05/22 07:05:10;;;;;;;;;;;20.90;51.40;;;;;;5032105;28;19937;-67
2021/05/22 07:07:38;;;;;;;;;;;21.00;51.40;;;;;;5035328;28;19939;-68
2021/05/22 07:10:05;;;;;;;;;;;21.00;51.40;;;;;;5015243;28;19928;-69
2021/05/22 07:12:31;;;;;;;;;;;21.00;51.40;;;;;;5041367;28;19998;-68
2021/05/22 07:14:57;;;;;;;;;;;21.00;51.40;;;;;;5035552;28;19933;-69
2021/05/22 07:17:23;;;;;;;;;;;21.00;51.20;;;;;;5048477;28;20412;-69
2021/05/22 07:19:49;;;;;;;;;;;21.00;51.30;;;;;;5047879;28;19932;-71
2021/05/22 07:22:15;;;;;;;;;;;21.00;51.30;;;;;;5035435;28;19940;-73
2021/05/22 07:24:41;;;;;;;;;;;21.00;51.30;;;;;;5032985;28;20388;-67
2021/05/22 07:27:07;;;;;;;;;;;21.00;51.40;;;;;;5023923;28;20644;-68
2021/05/22 07:29:33;;;;;;;;;;;20.90;51.20;;;;;;5046780;28;19951;-68
2021/05/22 07:31:59;;;;;;;;;;;20.90;51.40;;;;;;5019013;28;20413;-70
2021/05/22 07:34:26;;;;;;;;;;;21.00;51.40;;;;;;5039778;28;19929;-68
2021/05/22 07:36:52;;;;;;;;;;;21.00;51.50;;;;;;5023363;28;19936;-68
2021/05/22 07:39:18;;;;;;;;;;;21.00;51.40;;;;;;5044121;28;19990;-67
2021/05/22 07:41:45;;;;;;;;;;;21.00;51.40;;;;;;5038567;28;19928;-69
2021/05/22 07:44:11;;;;;;;;;;;21.00;51.30;;;;;;5047744;28;19928;-69
2021/05/22 07:46:37;;;;;;;;;;;21.00;51.30;;;;;;5044761;28;19929;-69
2021/05/22 07:49:03;;;;;;;;;;;21.00;51.30;;;;;;5047012;28;19935;-69
2021/05/22 07:51:29;;;;;;;;;;;21.00;51.20;;;;;;5035645;28;20325;-71
2021/05/22 07:53:55;;;;;;;;;;;21.00;51.30;;;;;;5051935;28;19936;-69
2021/05/22 07:56:21;;;;;;;;;;;21.00;51.40;;;;;;5047869;28;19929;-68
2021/05/22 07:58:48;;;;;;;;;;;20.90;51.40;;;;;;5027028;28;19928;-68
2021/05/22 08:01:14;;;;;;;;;;;20.90;51.40;;;;;;5045142;28;19928;-72
2021/05/22 08:03:40;;;;;;;;;;;20.90;51.50;;;;;;5051839;28;19963;-71
2021/05/22 08:06:06;;;;;;;;;;;20.90;51.50;;;;;;5025950;28;19997;-69
2021/05/22 08:08:32;;;;;;;;;;;20.80;51.50;;;;;;5008039;28;19964;-68
2021/05/22 08:10:58;;;;;;;;;;;20.80;51.50;;;;;;5020054;28;20415;-68
2021/05/22 08:13:28;;;;;;;;;;;20.90;51.60;;;;;;5041552;28;19928;-68
2021/05/22 08:15:55;;;;;;;;;;;20.80;51.40;;;;;;5050189;28;20287;-69
2021/05/22 08:18:21;;;;;;;;;;;20.80;51.40;;;;;;5051724;28;19928;-69
2021/05/22 08:20:47;;;;;;;;;;;20.90;51.40;;;;;;5050343;28;20371;-69
2021/05/22 08:23:13;;;;;;;;;;;20.90;51.40;;;;;;5047652;28;19935;-70
2021/05/22 08:25:39;;;;;;;;;;;20.80;51.40;;;;;;5051938;28;19935;-65
2021/05/22 08:28:07;;;;;;;;;;;20.90;51.50;;;;;;5048622;28;19936;-70
2021/05/22 08:30:33;;;;;;;;;;;20.90;51.60;;;;;;5048823;28;19939;-69
2021/05/22 08:33:01;;;;;;;;;;;20.90;51.40;;;;;;5017718;28;19929;-71
2021/05/22 08:35:28;;;;;;;;;;;20.90;51.40;;;;;;5020875;28;20003;-69
2021/05/22 08:37:55;;;;;;;;;;;20.90;51.40;;;;;;5014602;28;19964;-70
2021/05/22 08:40:25;;;;;;;;;;;20.90;51.30;;;;;;5048676;28;20094;-69
2021/05/22 08:42:51;;;;;;;;;;;20.90;51.40;;;;;;5038589;28;19935;-68
2021/05/22 08:45:20;;;;;;;;;;;20.90;51.40;;;;;;5051188;28;19933;-69
2021/05/22 08:47:48;;;;;;;;;;;20.90;51.40;;;;;;5051967;28;20408;-70
2021/05/22 08:50:15;;;;;;;;;;;20.90;51.40;;;;;;5040262;28;20377;-68
2021/05/22 08:52:41;;;;;;;;;;;21.00;51.50;;;;;;5039182;28;19952;-68
2021/05/22 08:55:08;;;;;;;;;;;21.00;51.60;;;;;;5031633;28;19953;-68
2021/05/22 08:57:34;;;;;;;;;;;21.00;51.60;;;;;;5020580;28;19954;-67
2021/05/22 09:00:00;;;;;;;;;;;21.00;51.60;;;;;;5035956;28;20312;-70
2021/05/22 09:02:26;;;;;;;;;;;21.00;51.60;;;;;;5048116;28;19929;-72
2021/05/22 09:05:06;;;;;;;;;;;21.00;51.70;;;;;;5049179;28;20956;-70
2021/05/22 09:07:34;;;;;;;;;;;21.00;51.70;;;;;;5033026;28;20392;-70
2021/05/22 09:10:04;;;;;;;;;;;21.00;51.80;;;;;;5048891;28;19978;-71
2021/05/22 09:12:33;;;;;;;;;;;21.00;51.90;;;;;;5049912;28;20042;-68
2021/05/22 09:14:59;;;;;;;;;;;21.00;52.10;;;;;;5048791;28;19929;-71
2021/05/22 09:17:25;;;;;;;;;;;21.00;52.00;;;;;;5037967;28;19936;-69
2021/05/22 09:19:51;;;;;;;;;;;21.00;52.00;;;;;;5044902;28;19975;-71
2021/05/22 09:22:20;;;;;;;;;;;21.00;52.00;;;;;;5028266;28;19929;-71
2021/05/22 09:24:56;;;;;;;;;;;21.00;52.00;;;;;;5007578;28;20539;-69
2021/05/22 09:27:22;;;;;;;;;;;21.00;52.00;;;;;;5046341;28;19929;-69
2021/05/22 09:29:49;;;;;;;;;;;21.00;52.00;;;;;;5038134;28;19933;-68
2021/05/22 09:32:15;;;;;;;;;;;21.00;52.10;;;;;;5047416;28;20274;-72
2021/05/22 09:34:41;;;;;;;;;;;21.00;52.20;;;;;;5049439;28;19932;-69
2021/05/22 09:37:10;;;;;;;;;;;20.90;52.20;;;;;;5036562;28;19936;-68
2021/05/22 09:39:44;;;;;;;;;;;20.90;52.10;;;;;;5051519;28;20387;-70
2021/05/22 09:42:11;;;;;;;;;;;20.90;52.30;;;;;;5040792;28;19928;-68
2021/05/22 09:44:37;;;;;;;;;;;20.90;52.40;;;;;;5040582;28;20010;-68
2021/05/22 09:47:03;;;;;;;;;;;20.90;52.50;;;;;;5051710;28;19971;-68
2021/05/22 09:49:30;;;;;;;;;;;20.90;52.50;;;;;;5048228;28;19928;-69
2021/05/22 09:51:56;;;;;;;;;;;20.90;52.60;;;;;;5050207;28;20685;-68
2021/05/22 09:54:27;;;;;;;;;;;20.90;52.60;;;;;;5049939;28;19929;-68
2021/05/22 09:56:53;;;;;;;;;;;20.90;52.60;;;;;;5040754;28;20956;-68
2021/05/22 09:59:20;;;;;;;;;;;20.90;52.50;;;;;;5033692;28;19951;-68
2021/05/22 10:01:46;;;;;;;;;;;20.90;52.60;;;;;;5038178;28;19979;-71
2021/05/22 10:04:15;;;;;;;;;;;21.00;52.50;;;;;;5039133;28;20599;-68
2021/05/22 10:06:41;;;;;;;;;;;20.90;52.40;;;;;;5029258;28;19934;-68
2021/05/22 10:09:10;;;;;;;;;;;20.90;52.50;;;;;;5033311;28;19933;-69
2021/05/22 10:11:51;;;;;;;;;;;20.90;52.60;;;;;;5047037;28;19932;-70
2021/05/22 10:14:17;;;;;;;;;;;20.90;52.70;;;;;;5047204;28;19935;-68
2021/05/22 10:16:44;;;;;;;;;;;20.90;52.70;;;;;;5050082;28;19929;-69
2021/05/22 10:19:10;;;;;;;;;;;20.90;52.70;;;;;;5032738;28;19983;-69
2021/05/22 10:21:37;;;;;;;;;;;20.80;52.80;;;;;;5012040;28;19929;-69
2021/05/22 10:24:03;;;;;;;;;;;20.80;52.80;;;;;;4990495;28;20332;-68
2021/05/22 10:26:29;;;;;;;;;;;20.80;52.90;;;;;;5003000;28;20101;-69
2021/05/22 10:28:55;;;;;;;;;;;20.80;52.90;;;;;;5029997;28;20644;-68
2021/05/22 10:31:22;;;;;;;;;;;20.80;52.90;;;;;;5042263;28;20546;-69
2021/05/22 10:33:49;;;;;;;;;;;20.80;52.90;;;;;;5040075;28;19932;-70
2021/05/22 10:36:15;;;;;;;;;;;20.80;52.90;;;;;;5032927;28;19929;-68
2021/05/22 10:38:42;;;;;;;;;;;20.80;52.80;;;;;;5020394;28;19936;-67
2021/05/22 10:41:11;;;;;;;;;;;20.80;52.90;;;;;;5033478;28;19986;-69
2021/05/22 10:43:44;;;;;;;;;;;20.90;52.90;;;;;;5050579;28;19928;-70
2021/05/22 10:46:10;;;;;;;;;;;20.90;52.90;;;;;;5028992;28;20157;-69
2021/05/22 10:48:52;;;;;;;;;;;20.90;52.90;;;;;;5042661;28;19929;-68
2021/05/22 10:51:22;;;;;;;;;;;20.90;52.80;;;;;;5036840;28;19936;-68
2021/05/22 10:53:52;;;;;;;;;;;20.90;52.90;;;;;;5049029;28;20874;-69
2021/05/22 10:56:18;;;;;;;;;;;20.90;52.80;;;;;;5049217;28;20366;-68
2021/05/22 10:59:07;;;;;;;;;;;20.90;52.80;;;;;;5020986;28;20315;-67
2021/05/22 11:01:36;;;;;;;;;;;20.90;52.90;;;;;;5036935;28;19928;-68
2021/05/22 11:04:22;;;;;;;;;;;20.90;53.00;;;;;;5039006;28;20488;-68
2021/05/22 11:06:49;;;;;;;;;;;20.80;52.90;;;;;;5035126;28;19996;-69
2021/05/22 11:09:31;;;;;;;;;;;20.80;52.90;;;;;;5045452;28;19998;-70
2021/05/22 11:11:57;;;;;;;;;;;20.80;53.00;;;;;;5030348;28;19935;-69
2021/05/22 11:14:35;;;;;;;;;;;20.80;53.80;;;;;;5050934;28;19935;-69
2021/05/22 11:17:01;;;;;;;;;;;20.80;53.00;;;;;;5037911;28;19937;-71
2021/05/22 11:19:27;;;;;;;;;;;20.80;53.10;;;;;;5029033;28;20469;-69
2021/05/22 11:22:08;;;;;;;;;;;20.90;53.10;;;;;;5046784;28;19935;-69
2021/05/22 11:24:35;;;;;;;;;;;20.90;53.10;;;;;;5036990;28;19928;-70
2021/05/22 11:27:04;;;;;;;;;;;20.90;53.00;;;;;;5036364;28;20491;-68
2021/05/22 11:29:49;;;;;;;;;;;20.90;53.00;;;;;;5031784;28;19999;-70
2021/05/22 11:32:33;;;;;;;;;;;20.90;53.00;;;;;;5025960;28;19929;-71
2021/05/22 11:34:59;;;;;;;;;;;20.90;53.00;;;;;;5038125;28;19929;-69
2021/05/22 11:37:31;;;;;;;;;;;20.90;53.00;;;;;;4994000;28;20012;-69
2021/05/22 11:39:58;;;;;;;;;;;20.90;53.00;;;;;;5040319;28;20032;-69
2021/05/22 11:42:28;;;;;;;;;;;20.90;53.20;;;;;;5034645;28;19990;-70
2021/05/22 11:44:54;;;;;;;;;;;20.90;53.20;;;;;;5048631;28;19986;-68
2021/05/22 11:47:20;;;;;;;;;;;20.90;53.80;;;;;;5048583;28;19928;-70
2021/05/22 11:49:46;;;;;;;;;;;20.90;53.10;;;;;;5047549;28;19928;-68
2021/05/22 11:52:25;;;;;;;;;;;20.90;53.10;;;;;;5031509;28;19929;-68
2021/05/22 11:54:51;;;;;;;;;;;21.00;53.10;;;;;;5021674;28;20241;-69
2021/05/22 11:57:18;;;;;;;;;;;21.00;53.10;;;;;;5038176;28;20511;-69
2021/05/22 11:59:44;;;;;;;;;;;21.00;53.00;;;;;;5015907;28;19933;-71
2021/05/22 12:02:10;;;;;;;;;;;21.00;53.10;;;;;;5006339;28;19928;-69
2021/05/22 12:04:40;;;;;;;;;;;20.90;53.00;;;;;;5033876;28;19951;-71
2021/05/22 12:07:06;;;;;;;;;;;20.90;53.10;;;;;;5020427;28;19925;-68
2021/05/22 12:09:32;;;;;;;;;;;20.90;53.20;;;;;;5039029;28;19935;-69
2021/05/22 12:11:59;;;;;;;;;;;20.90;53.20;;;;;;5038265;28;19938;-69
2021/05/22 12:14:35;;;;;;;;;;;20.90;53.20;;;;;;5036577;28;20274;-70
2021/05/22 12:17:01;;;;;;;;;;;20.90;53.20;;;;;;5034906;28;19928;-71
2021/05/22 12:19:30;;;;;;;;;;;20.90;53.30;;;;;;5035463;28;19933;-69
2021/05/22 12:21:56;;;;;;;;;;;20.90;53.30;;;;;;5027876;28;19929;-69
2021/05/22 12:24:22;;;;;;;;;;;20.90;53.20;;;;;;5031303;28;19936;-70
2021/05/22 12:26:49;;;;;;;;;;;20.90;53.10;;;;;;5027753;28;19933;-70
2021/05/22 12:29:15;;;;;;;;;;;20.90;53.00;;;;;;5033841;28;20309;-69
2021/05/22 12:31:47;;;;;;;;;;;20.90;53.10;;;;;;5021071;28;19940;-68
2021/05/22 12:34:13;;;;;;;;;;;20.90;53.10;;;;;;5034279;28;19929;-68
2021/05/22 12:36:52;;;;;;;;;;;20.90;53.20;;;;;;5034107;28;20312;-69
2021/05/22 12:39:18;;;;;;;;;;;20.90;53.20;;;;;;5020805;28;20089;-68
2021/05/22 12:41:44;;;;;;;;;;;20.90;53.30;;;;;;5046741;28;19933;-69
2021/05/22 12:44:18;;;;;;;;;;;20.90;53.30;;;;;;5037611;28;19994;-71
2021/05/22 12:46:46;;;;;;;;;;;20.90;53.40;;;;;;5030128;28;19935;-70
2021/05/22 12:49:13;;;;;;;;;;;20.80;53.30;;;;;;5042078;28;20312;-68
2021/05/22 12:51:40;;;;;;;;;;;20.80;53.40;;;;;;5044797;28;19939;-68
2021/05/22 12:54:24;;;;;;;;;;;20.80;53.50;;;;;;5037044;28;19935;-70
2021/05/22 12:56:57;;;;;;;;;;;20.80;53.40;;;;;;5049725;28;19936;-69
2021/05/22 12:59:23;;;;;;;;;;;20.80;53.50;;;;;;5025389;28;19937;-68
2021/05/22 13:02:00;;;;;;;;;;;20.80;53.50;;;;;;5050271;28;20086;-69
2021/05/22 13:04:26;;;;;;;;;;;20.80;53.60;;;;;;4998972;28;19929;-70
2021/05/22 13:06:52;;;;;;;;;;;20.80;53.70;;;;;;5024278;28;19929;-70
2021/05/22 13:09:18;;;;;;;;;;;20.80;53.60;;;;;;5029971;28;19929;-70
2021/05/22 13:11:54;;;;;;;;;;;20.90;53.60;;;;;;5030803;28;19963;-68
2021/05/22 13:14:21;;;;;;;;;;;20.80;53.50;;;;;;5040996;28;19936;-69
2021/05/22 13:16:54;;;;;;;;;;;20.90;53.50;;;;;;5050124;28;20304;-67
2021/05/22 13:19:29;;;;;;;;;;;20.90;53.50;;;;;;5026339;28;20312;-68
2021/05/22 13:21:55;;;;;;;;;;;20.90;53.50;;;;;;5047026;28;19929;-69
2021/05/22 13:24:23;;;;;;;;;;;20.80;53.50;;;;;;5050018;28;19936;-68
2021/05/22 13:26:49;;;;;;;;;;;20.80;53.50;;;;;;5038921;28;19928;-69
2021/05/22 13:29:15;;;;;;;;;;;20.90;53.60;;;;;;5050410;28;19935;-70
2021/05/22 13:31:41;;;;;;;;;;;20.90;53.50;;;;;;5048458;28;20060;-69
2021/05/22 13:34:08;;;;;;;;;;;20.90;53.50;;;;;;5050533;28;19928;-69
2021/05/22 13:36:35;;;;;;;;;;;20.90;53.50;;;;;;5031492;28;19925;-68
2021/05/22 13:39:01;;;;;;;;;;;20.90;53.40;;;;;;5019855;28;19928;-71
2021/05/22 13:41:27;;;;;;;;;;;20.90;53.40;;;;;;5025372;28;19929;-70
2021/05/22 13:43:53;;;;;;;;;;;20.90;53.40;;;;;;5042046;28;20355;-68
2021/05/22 13:46:19;;;;;;;;;;;20.90;53.40;;;;;;5036246;28;21117;-70
2021/05/22 13:48:45;;;;;;;;;;;20.90;53.50;;;;;;5050057;28;19972;-70
2021/05/22 13:51:11;;;;;;;;;;;20.90;53.50;;;;;;5050566;28;20864;-69
2021/05/22 13:53:38;;;;;;;;;;;20.90;53.60;;;;;;5050001;28;19928;-69
2021/05/22 13:56:04;;;;;;;;;;;20.80;53.60;;;;;;5009818;28;19929;-69
2021/05/22 13:58:30;;;;;;;;;;;20.80;53.60;;;;;;5024608;28;19936;-69
2021/05/22 14:00:56;;;;;;;;;;;20.80;53.70;;;;;;5011462;28;19929;-69
2021/05/22 14:03:22;;;;;;;;;;;20.80;53.60;;;;;;5000366;28;19929;-69
2021/05/22 14:05:48;;;;;;;;;;;20.90;53.80;;;;;;5040220;28;20558;-70
2021/05/22 14:08:14;;;;;;;;;;;20.90;53.60;;;;;;5022528;28;20003;-70
2021/05/22 14:10:42;;;;;;;;;;;20.90;53.60;;;;;;5049420;28;20631;-69
2021/05/22 14:13:08;;;;;;;;;;;20.90;53.50;;;;;;5030717;28;20605;-68
2021/05/22 14:15:34;;;;;;;;;;;21.00;53.50;;;;;;5001748;28;20400;-69